sensor_id;sensor_type;location;lat;lon;timestamp;P1;durP1;ratioP1;P2;durP2;ratioP2
20525;SDS011;10421;49.142;9.232;2022-12-07T00:00:11;5.90;;;3.93;;
20525;SDS011;10421;49.142;9.232;2022-12-07T00:02:39;7.23;;;3.93;;
20525;SDS011;10421;49.142;9.232;2022-12-07T00:05:06;6.20;;;4.83;;
20525;SDS011;10421;49.142;9.232;2022-12-07T00:07:35;8.10;;;4.57;;
20525;SDS011;10421;49.142;9.232;2022-12-07T00:10:01;7.30;;;4.63;;
20525;SDS011;10421;49.142;9.232;2022-12-07T00:12:28;8.30;;;4.90;;
20525;SDS011;10421;49.142;9.232;2022-12-07T00:14:55;10.07;;;5.20;;
20525;SDS011;10421;49.142;9.232;2022-12-07T00:17:22;7.90;;;4.80;;
20525;SDS011;10421;49.142;9.232;2022-12-07T00:19:49;7.17;;;4.37;;
20525;SDS011;10421;49.142;9.232;2022-12-07T00:22:15;8.70;;;4.83;;
20525;SDS011;10421;49.142;9.232;2022-12-07T00:24:43;8.33;;;5.00;;
20525;SDS011;10421;49.142;9.232;2022-12-07T00:27:10;9.50;;;5.17;;
20525;SDS011;10421;49.142;9.232;2022-12-07T00:29:37;9.60;;;5.60;;
20525;SDS011;10421;49.142;9.232;2022-12-07T00:32:03;7.83;;;5.13;;
20525;SDS011;10421;49.142;9.232;2022-12-07T00:34:30;8.07;;;5.00;;
20525;SDS011;10421;49.142;9.232;2022-12-07T00:36:57;10.07;;;5.27;;
20525;SDS011;10421;49.142;9.232;2022-12-07T00:39:24;9.03;;;6.20;;
20525;SDS011;10421;49.142;9.232;2022-12-07T00:41:52;10.27;;;5.83;;
20525;SDS011;10421;49.142;9.232;2022-12-07T00:44:18;7.70;;;5.23;;
20525;SDS011;10421;49.142;9.232;2022-12-07T00:46:45;10.50;;;4.73;;
20525;SDS011;10421;49.142;9.232;2022-12-07T00:49:12;9.07;;;5.30;;
20525;SDS011;10421;49.142;9.232;2022-12-07T00:51:39;10.77;;;6.27;;
20525;SDS011;10421;49.142;9.232;2022-12-07T00:54:05;12.07;;;5.63;;
20525;SDS011;10421;49.142;9.232;2022-12-07T00:56:32;8.80;;;5.40;;
20525;SDS011;10421;49.142;9.232;2022-12-07T00:59:01;9.73;;;5.53;;
20525;SDS011;10421;49.142;9.232;2022-12-07T01:01:30;9.03;;;5.47;;
20525;SDS011;10421;49.142;9.232;2022-12-07T01:03:58;10.50;;;5.77;;
20525;SDS011;10421;49.142;9.232;2022-12-07T01:06:26;8.83;;;5.37;;
20525;SDS011;10421;49.142;9.232;2022-12-07T01:08:53;11.67;;;5.70;;
20525;SDS011;10421;49.142;9.232;2022-12-07T01:11:21;11.40;;;6.23;;
20525;SDS011;10421;49.142;9.232;2022-12-07T01:13:49;9.60;;;5.47;;
20525;SDS011;10421;49.142;9.232;2022-12-07T01:16:18;9.40;;;5.80;;
20525;SDS011;10421;49.142;9.232;2022-12-07T01:18:47;9.13;;;5.97;;
20525;SDS011;10421;49.142;9.232;2022-12-07T01:21:16;8.47;;;5.30;;
20525;SDS011;10421;49.142;9.232;2022-12-07T01:23:45;9.37;;;5.40;;
20525;SDS011;10421;49.142;9.232;2022-12-07T01:26:14;12.00;;;5.47;;
20525;SDS011;10421;49.142;9.232;2022-12-07T01:28:42;8.37;;;5.03;;
20525;SDS011;10421;49.142;9.232;2022-12-07T01:31:10;9.90;;;5.83;;
20525;SDS011;10421;49.142;9.232;2022-12-07T01:33:41;13.60;;;6.53;;
20525;SDS011;10421;49.142;9.232;2022-12-07T01:36:12;12.17;;;6.53;;
20525;SDS011;10421;49.142;9.232;2022-12-07T01:38:40;9.80;;;6.00;;
20525;SDS011;10421;49.142;9.232;2022-12-07T01:41:07;9.67;;;5.43;;
20525;SDS011;10421;49.142;9.232;2022-12-07T01:43:34;12.17;;;6.27;;
20525;SDS011;10421;49.142;9.232;2022-12-07T01:46:02;13.37;;;6.20;;
20525;SDS011;10421;49.142;9.232;2022-12-07T01:48:30;10.33;;;5.73;;
20525;SDS011;10421;49.142;9.232;2022-12-07T01:51:03;11.27;;;6.60;;
20525;SDS011;10421;49.142;9.232;2022-12-07T01:53:33;10.20;;;5.73;;
20525;SDS011;10421;49.142;9.232;2022-12-07T01:56:02;11.33;;;6.17;;
20525;SDS011;10421;49.142;9.232;2022-12-07T01:58:29;9.97;;;5.90;;
20525;SDS011;10421;49.142;9.232;2022-12-07T02:00:55;10.63;;;6.57;;
20525;SDS011;10421;49.142;9.232;2022-12-07T02:03:24;11.87;;;6.17;;
20525;SDS011;10421;49.142;9.232;2022-12-07T02:05:55;13.13;;;6.97;;
20525;SDS011;10421;49.142;9.232;2022-12-07T02:08:25;8.60;;;5.83;;
20525;SDS011;10421;49.142;9.232;2022-12-07T02:10:52;12.60;;;6.30;;
20525;SDS011;10421;49.142;9.232;2022-12-07T02:13:19;10.50;;;6.13;;
20525;SDS011;10421;49.142;9.232;2022-12-07T02:15:56;9.73;;;6.80;;
20525;SDS011;10421;49.142;9.232;2022-12-07T02:18:36;11.80;;;6.90;;
20525;SDS011;10421;49.142;9.232;2022-12-07T02:21:14;13.80;;;7.60;;
20525;SDS011;10421;49.142;9.232;2022-12-07T02:23:53;9.33;;;6.27;;
20525;SDS011;10421;49.142;9.232;2022-12-07T02:26:54;11.30;;;6.40;;
20525;SDS011;10421;49.142;9.232;2022-12-07T02:29:44;10.73;;;5.83;;
20525;SDS011;10421;49.142;9.232;2022-12-07T02:32:16;11.60;;;6.13;;
20525;SDS011;10421;49.142;9.232;2022-12-07T02:34:49;12.57;;;6.70;;
20525;SDS011;10421;49.142;9.232;2022-12-07T02:37:19;9.73;;;5.97;;
20525;SDS011;10421;49.142;9.232;2022-12-07T02:40:02;9.90;;;6.17;;
20525;SDS011;10421;49.142;9.232;2022-12-07T02:42:37;12.13;;;6.23;;
20525;SDS011;10421;49.142;9.232;2022-12-07T02:45:10;12.83;;;6.40;;
20525;SDS011;10421;49.142;9.232;2022-12-07T02:47:39;11.20;;;5.53;;
20525;SDS011;10421;49.142;9.232;2022-12-07T02:50:08;9.93;;;5.30;;
20525;SDS011;10421;49.142;9.232;2022-12-07T02:52:35;9.37;;;5.70;;
20525;SDS011;10421;49.142;9.232;2022-12-07T02:55:02;9.53;;;5.40;;
20525;SDS011;10421;49.142;9.232;2022-12-07T02:57:35;9.53;;;5.47;;
20525;SDS011;10421;49.142;9.232;2022-12-07T03:00:13;13.67;;;6.70;;
20525;SDS011;10421;49.142;9.232;2022-12-07T03:02:46;11.03;;;5.87;;
20525;SDS011;10421;49.142;9.232;2022-12-07T03:05:22;18.23;;;7.60;;
20525;SDS011;10421;49.142;9.232;2022-12-07T03:08:04;10.80;;;6.47;;
20525;SDS011;10421;49.142;9.232;2022-12-07T03:10:35;13.40;;;6.63;;
20525;SDS011;10421;49.142;9.232;2022-12-07T03:13:09;10.70;;;6.17;;
20525;SDS011;10421;49.142;9.232;2022-12-07T03:15:43;11.67;;;6.00;;
20525;SDS011;10421;49.142;9.232;2022-12-07T03:18:18;14.43;;;7.27;;
20525;SDS011;10421;49.142;9.232;2022-12-07T03:20:48;11.10;;;5.90;;
20525;SDS011;10421;49.142;9.232;2022-12-07T03:23:17;11.67;;;6.27;;
20525;SDS011;10421;49.142;9.232;2022-12-07T03:25:45;10.03;;;5.60;;
20525;SDS011;10421;49.142;9.232;2022-12-07T03:28:15;11.00;;;6.87;;
20525;SDS011;10421;49.142;9.232;2022-12-07T03:30:47;11.57;;;6.57;;
20525;SDS011;10421;49.142;9.232;2022-12-07T03:33:18;11.67;;;6.73;;
20525;SDS011;10421;49.142;9.232;2022-12-07T03:35:49;13.50;;;6.67;;
20525;SDS011;10421;49.142;9.232;2022-12-07T03:38:21;11.80;;;7.07;;
20525;SDS011;10421;49.142;9.232;2022-12-07T03:40:52;15.70;;;6.90;;
20525;SDS011;10421;49.142;9.232;2022-12-07T03:43:25;13.00;;;6.17;;
20525;SDS011;10421;49.142;9.232;2022-12-07T03:45:58;13.77;;;7.00;;
20525;SDS011;10421;49.142;9.232;2022-12-07T03:48:32;10.77;;;6.57;;
20525;SDS011;10421;49.142;9.232;2022-12-07T03:51:04;12.57;;;6.93;;
20525;SDS011;10421;49.142;9.232;2022-12-07T03:53:39;13.43;;;7.40;;
20525;SDS011;10421;49.142;9.232;2022-12-07T03:56:08;13.47;;;7.33;;
20525;SDS011;10421;49.142;9.232;2022-12-07T03:58:36;11.37;;;6.90;;
20525;SDS011;10421;49.142;9.232;2022-12-07T04:01:05;12.87;;;7.83;;
20525;SDS011;10421;49.142;9.232;2022-12-07T04:03:32;14.67;;;7.40;;
20525;SDS011;10421;49.142;9.232;2022-12-07T04:05:59;11.50;;;6.50;;
20525;SDS011;10421;49.142;9.232;2022-12-07T04:08:26;10.73;;;6.90;;
20525;SDS011;10421;49.142;9.232;2022-12-07T04:10:53;14.13;;;7.50;;
20525;SDS011;10421;49.142;9.232;2022-12-07T04:13:19;15.23;;;7.77;;
20525;SDS011;10421;49.142;9.232;2022-12-07T04:15:46;15.77;;;8.00;;
20525;SDS011;10421;49.142;9.232;2022-12-07T04:18:14;13.83;;;7.03;;
20525;SDS011;10421;49.142;9.232;2022-12-07T04:20:41;12.67;;;7.20;;
20525;SDS011;10421;49.142;9.232;2022-12-07T04:23:08;12.00;;;7.53;;
20525;SDS011;10421;49.142;9.232;2022-12-07T04:25:34;13.47;;;7.17;;
20525;SDS011;10421;49.142;9.232;2022-12-07T04:28:01;12.50;;;7.10;;
20525;SDS011;10421;49.142;9.232;2022-12-07T04:30:28;14.80;;;7.50;;
20525;SDS011;10421;49.142;9.232;2022-12-07T04:32:55;15.67;;;8.27;;
20525;SDS011;10421;49.142;9.232;2022-12-07T04:35:23;11.00;;;7.00;;
20525;SDS011;10421;49.142;9.232;2022-12-07T04:37:49;12.20;;;6.70;;
20525;SDS011;10421;49.142;9.232;2022-12-07T04:40:16;12.53;;;7.10;;
20525;SDS011;10421;49.142;9.232;2022-12-07T04:42:43;16.00;;;7.80;;
20525;SDS011;10421;49.142;9.232;2022-12-07T04:45:10;11.50;;;6.67;;
20525;SDS011;10421;49.142;9.232;2022-12-07T04:47:36;14.07;;;7.40;;
20525;SDS011;10421;49.142;9.232;2022-12-07T04:50:04;13.43;;;6.97;;
20525;SDS011;10421;49.142;9.232;2022-12-07T04:52:33;9.70;;;6.40;;
20525;SDS011;10421;49.142;9.232;2022-12-07T04:54:59;12.20;;;6.63;;
20525;SDS011;10421;49.142;9.232;2022-12-07T04:57:26;11.20;;;6.93;;
20525;SDS011;10421;49.142;9.232;2022-12-07T04:59:53;13.40;;;7.10;;
20525;SDS011;10421;49.142;9.232;2022-12-07T05:02:19;11.93;;;7.30;;
20525;SDS011;10421;49.142;9.232;2022-12-07T05:04:46;12.63;;;6.90;;
20525;SDS011;10421;49.142;9.232;2022-12-07T05:07:13;14.67;;;7.33;;
20525;SDS011;10421;49.142;9.232;2022-12-07T05:09:41;17.47;;;7.83;;
20525;SDS011;10421;49.142;9.232;2022-12-07T05:12:08;14.97;;;6.77;;
20525;SDS011;10421;49.142;9.232;2022-12-07T05:14:34;14.40;;;8.03;;
20525;SDS011;10421;49.142;9.232;2022-12-07T05:17:01;14.37;;;7.90;;
20525;SDS011;10421;49.142;9.232;2022-12-07T05:19:29;13.03;;;7.17;;
20525;SDS011;10421;49.142;9.232;2022-12-07T05:21:55;13.60;;;7.17;;
20525;SDS011;10421;49.142;9.232;2022-12-07T05:24:22;15.77;;;8.07;;
20525;SDS011;10421;49.142;9.232;2022-12-07T05:26:50;13.93;;;7.90;;
20525;SDS011;10421;49.142;9.232;2022-12-07T05:29:17;12.80;;;7.70;;
20525;SDS011;10421;49.142;9.232;2022-12-07T05:31:44;17.10;;;7.87;;
20525;SDS011;10421;49.142;9.232;2022-12-07T05:34:11;14.00;;;7.50;;
20525;SDS011;10421;49.142;9.232;2022-12-07T05:36:38;12.23;;;7.67;;
20525;SDS011;10421;49.142;9.232;2022-12-07T05:39:05;15.60;;;7.10;;
20525;SDS011;10421;49.142;9.232;2022-12-07T05:41:33;12.60;;;5.83;;
20525;SDS011;10421;49.142;9.232;2022-12-07T05:44:18;12.47;;;7.23;;
20525;SDS011;10421;49.142;9.232;2022-12-07T05:46:45;14.17;;;7.40;;
20525;SDS011;10421;49.142;9.232;2022-12-07T05:49:12;14.27;;;7.90;;
20525;SDS011;10421;49.142;9.232;2022-12-07T05:51:38;13.00;;;7.53;;
20525;SDS011;10421;49.142;9.232;2022-12-07T05:54:05;11.17;;;6.97;;
20525;SDS011;10421;49.142;9.232;2022-12-07T05:56:32;14.50;;;7.37;;
20525;SDS011;10421;49.142;9.232;2022-12-07T05:58:59;13.57;;;7.60;;
20525;SDS011;10421;49.142;9.232;2022-12-07T06:01:41;12.80;;;6.90;;
20525;SDS011;10421;49.142;9.232;2022-12-07T06:04:07;15.00;;;7.10;;
20525;SDS011;10421;49.142;9.232;2022-12-07T06:06:34;10.57;;;6.20;;
20525;SDS011;10421;49.142;9.232;2022-12-07T06:09:01;13.50;;;6.57;;
20525;SDS011;10421;49.142;9.232;2022-12-07T06:11:28;14.53;;;7.83;;
20525;SDS011;10421;49.142;9.232;2022-12-07T06:14:12;11.37;;;6.20;;
20525;SDS011;10421;49.142;9.232;2022-12-07T06:16:40;11.13;;;7.47;;
20525;SDS011;10421;49.142;9.232;2022-12-07T06:19:07;11.20;;;7.10;;
20525;SDS011;10421;49.142;9.232;2022-12-07T06:21:34;13.80;;;7.70;;
20525;SDS011;10421;49.142;9.232;2022-12-07T06:24:01;13.43;;;7.10;;
20525;SDS011;10421;49.142;9.232;2022-12-07T06:26:28;12.90;;;7.50;;
20525;SDS011;10421;49.142;9.232;2022-12-07T06:28:54;19.80;;;9.37;;
20525;SDS011;10421;49.142;9.232;2022-12-07T06:31:21;11.33;;;7.17;;
20525;SDS011;10421;49.142;9.232;2022-12-07T06:33:49;12.53;;;7.30;;
20525;SDS011;10421;49.142;9.232;2022-12-07T06:36:16;14.20;;;7.23;;
20525;SDS011;10421;49.142;9.232;2022-12-07T06:38:43;16.37;;;7.57;;
20525;SDS011;10421;49.142;9.232;2022-12-07T06:41:10;13.30;;;7.30;;
20525;SDS011;10421;49.142;9.232;2022-12-07T06:43:36;11.00;;;6.97;;
20525;SDS011;10421;49.142;9.232;2022-12-07T06:46:03;12.23;;;7.27;;
20525;SDS011;10421;49.142;9.232;2022-12-07T06:48:30;14.37;;;8.47;;
20525;SDS011;10421;49.142;9.232;2022-12-07T06:50:58;16.03;;;7.97;;
20525;SDS011;10421;49.142;9.232;2022-12-07T06:53:25;12.10;;;7.40;;
20525;SDS011;10421;49.142;9.232;2022-12-07T06:55:52;15.57;;;8.07;;
20525;SDS011;10421;49.142;9.232;2022-12-07T06:58:19;14.50;;;7.97;;
20525;SDS011;10421;49.142;9.232;2022-12-07T07:00:47;19.03;;;8.07;;
20525;SDS011;10421;49.142;9.232;2022-12-07T07:03:14;15.10;;;7.60;;
20525;SDS011;10421;49.142;9.232;2022-12-07T07:05:41;13.07;;;6.97;;
20525;SDS011;10421;49.142;9.232;2022-12-07T07:08:09;12.23;;;7.53;;
20525;SDS011;10421;49.142;9.232;2022-12-07T07:10:36;18.07;;;8.53;;
20525;SDS011;10421;49.142;9.232;2022-12-07T07:13:03;18.23;;;9.43;;
20525;SDS011;10421;49.142;9.232;2022-12-07T07:15:30;15.40;;;7.60;;
20525;SDS011;10421;49.142;9.232;2022-12-07T07:17:57;17.60;;;8.00;;
20525;SDS011;10421;49.142;9.232;2022-12-07T07:20:24;13.97;;;7.87;;
20525;SDS011;10421;49.142;9.232;2022-12-07T07:22:53;13.57;;;7.70;;
20525;SDS011;10421;49.142;9.232;2022-12-07T07:25:22;14.30;;;7.93;;
20525;SDS011;10421;49.142;9.232;2022-12-07T07:27:49;18.10;;;8.50;;
20525;SDS011;10421;49.142;9.232;2022-12-07T07:30:15;14.30;;;7.60;;
20525;SDS011;10421;49.142;9.232;2022-12-07T07:32:42;13.27;;;8.20;;
20525;SDS011;10421;49.142;9.232;2022-12-07T07:35:09;13.80;;;8.33;;
20525;SDS011;10421;49.142;9.232;2022-12-07T07:37:36;15.67;;;8.20;;
20525;SDS011;10421;49.142;9.232;2022-12-07T07:40:03;14.07;;;8.37;;
20525;SDS011;10421;49.142;9.232;2022-12-07T07:42:32;14.17;;;8.17;;
20525;SDS011;10421;49.142;9.232;2022-12-07T07:44:58;14.67;;;8.83;;
20525;SDS011;10421;49.142;9.232;2022-12-07T07:47:25;15.20;;;8.03;;
20525;SDS011;10421;49.142;9.232;2022-12-07T07:49:54;19.23;;;7.57;;
20525;SDS011;10421;49.142;9.232;2022-12-07T07:52:20;14.53;;;7.20;;
20525;SDS011;10421;49.142;9.232;2022-12-07T07:54:47;12.00;;;7.40;;
20525;SDS011;10421;49.142;9.232;2022-12-07T07:57:14;15.37;;;8.63;;
20525;SDS011;10421;49.142;9.232;2022-12-07T07:59:43;16.60;;;8.23;;
20525;SDS011;10421;49.142;9.232;2022-12-07T08:02:12;11.80;;;6.70;;
20525;SDS011;10421;49.142;9.232;2022-12-07T08:04:41;15.07;;;8.00;;
20525;SDS011;10421;49.142;9.232;2022-12-07T08:07:07;15.43;;;8.60;;
20525;SDS011;10421;49.142;9.232;2022-12-07T08:09:34;17.73;;;8.00;;
20525;SDS011;10421;49.142;9.232;2022-12-07T08:12:01;17.23;;;8.27;;
20525;SDS011;10421;49.142;9.232;2022-12-07T08:14:28;15.47;;;7.70;;
20525;SDS011;10421;49.142;9.232;2022-12-07T08:16:56;14.00;;;7.57;;
20525;SDS011;10421;49.142;9.232;2022-12-07T08:19:23;11.23;;;6.47;;
20525;SDS011;10421;49.142;9.232;2022-12-07T08:21:50;17.60;;;7.60;;
20525;SDS011;10421;49.142;9.232;2022-12-07T08:24:17;12.43;;;7.40;;
20525;SDS011;10421;49.142;9.232;2022-12-07T08:26:44;12.77;;;6.67;;
20525;SDS011;10421;49.142;9.232;2022-12-07T08:29:11;10.50;;;6.10;;
20525;SDS011;10421;49.142;9.232;2022-12-07T08:31:38;12.73;;;7.10;;
20525;SDS011;10421;49.142;9.232;2022-12-07T08:34:06;12.63;;;7.30;;
20525;SDS011;10421;49.142;9.232;2022-12-07T08:36:32;12.83;;;7.60;;
20525;SDS011;10421;49.142;9.232;2022-12-07T08:38:59;11.60;;;6.70;;
20525;SDS011;10421;49.142;9.232;2022-12-07T08:41:26;14.50;;;7.80;;
20525;SDS011;10421;49.142;9.232;2022-12-07T08:43:53;13.77;;;7.13;;
20525;SDS011;10421;49.142;9.232;2022-12-07T08:46:20;14.50;;;7.50;;
20525;SDS011;10421;49.142;9.232;2022-12-07T08:48:52;15.87;;;7.53;;
20525;SDS011;10421;49.142;9.232;2022-12-07T08:51:23;18.13;;;7.30;;
20525;SDS011;10421;49.142;9.232;2022-12-07T08:53:50;11.83;;;6.90;;
20525;SDS011;10421;49.142;9.232;2022-12-07T08:56:18;15.13;;;7.67;;
20525;SDS011;10421;49.142;9.232;2022-12-07T08:58:46;11.40;;;7.10;;
20525;SDS011;10421;49.142;9.232;2022-12-07T09:01:14;15.07;;;7.13;;
20525;SDS011;10421;49.142;9.232;2022-12-07T09:03:41;12.70;;;6.60;;
20525;SDS011;10421;49.142;9.232;2022-12-07T09:06:07;9.87;;;6.33;;
20525;SDS011;10421;49.142;9.232;2022-12-07T09:08:36;11.97;;;7.13;;
20525;SDS011;10421;49.142;9.232;2022-12-07T09:11:06;11.50;;;6.50;;
20525;SDS011;10421;49.142;9.232;2022-12-07T09:13:33;11.87;;;6.53;;
20525;SDS011;10421;49.142;9.232;2022-12-07T09:15:59;13.70;;;6.13;;
20525;SDS011;10421;49.142;9.232;2022-12-07T09:18:26;10.70;;;6.30;;
20525;SDS011;10421;49.142;9.232;2022-12-07T09:20:53;11.67;;;6.07;;
20525;SDS011;10421;49.142;9.232;2022-12-07T09:23:20;10.73;;;6.13;;
20525;SDS011;10421;49.142;9.232;2022-12-07T09:25:48;10.57;;;6.17;;
20525;SDS011;10421;49.142;9.232;2022-12-07T09:28:15;12.07;;;5.80;;
20525;SDS011;10421;49.142;9.232;2022-12-07T09:30:44;13.50;;;6.80;;
20525;SDS011;10421;49.142;9.232;2022-12-07T09:33:11;9.70;;;6.10;;
20525;SDS011;10421;49.142;9.232;2022-12-07T09:35:43;12.70;;;6.53;;
20525;SDS011;10421;49.142;9.232;2022-12-07T09:38:10;15.53;;;6.07;;
20525;SDS011;10421;49.142;9.232;2022-12-07T09:40:38;13.40;;;6.83;;
20525;SDS011;10421;49.142;9.232;2022-12-07T09:43:11;11.33;;;6.27;;
20525;SDS011;10421;49.142;9.232;2022-12-07T09:45:39;11.80;;;6.50;;
20525;SDS011;10421;49.142;9.232;2022-12-07T09:48:08;10.43;;;5.87;;
20525;SDS011;10421;49.142;9.232;2022-12-07T09:50:42;11.60;;;5.87;;
20525;SDS011;10421;49.142;9.232;2022-12-07T09:53:12;10.03;;;6.00;;
20525;SDS011;10421;49.142;9.232;2022-12-07T09:55:41;13.87;;;6.10;;
20525;SDS011;10421;49.142;9.232;2022-12-07T09:58:11;12.07;;;5.30;;
20525;SDS011;10421;49.142;9.232;2022-12-07T10:00:46;8.60;;;6.27;;
20525;SDS011;10421;49.142;9.232;2022-12-07T10:03:14;7.67;;;5.47;;
20525;SDS011;10421;49.142;9.232;2022-12-07T10:05:42;10.90;;;5.40;;
20525;SDS011;10421;49.142;9.232;2022-12-07T10:08:13;12.43;;;5.80;;
20525;SDS011;10421;49.142;9.232;2022-12-07T10:10:42;12.57;;;5.80;;
20525;SDS011;10421;49.142;9.232;2022-12-07T10:13:12;13.50;;;6.07;;
20525;SDS011;10421;49.142;9.232;2022-12-07T10:15:44;11.73;;;6.00;;
20525;SDS011;10421;49.142;9.232;2022-12-07T10:18:18;10.47;;;5.50;;
20525;SDS011;10421;49.142;9.232;2022-12-07T10:20:47;10.90;;;5.60;;
20525;SDS011;10421;49.142;9.232;2022-12-07T10:23:15;8.40;;;5.30;;
20525;SDS011;10421;49.142;9.232;2022-12-07T10:25:43;9.70;;;5.50;;
20525;SDS011;10421;49.142;9.232;2022-12-07T10:28:12;11.10;;;5.70;;
20525;SDS011;10421;49.142;9.232;2022-12-07T10:30:48;9.33;;;5.30;;
20525;SDS011;10421;49.142;9.232;2022-12-07T10:33:27;9.83;;;6.10;;
20525;SDS011;10421;49.142;9.232;2022-12-07T10:35:56;9.70;;;6.10;;
20525;SDS011;10421;49.142;9.232;2022-12-07T10:38:24;12.20;;;5.80;;
20525;SDS011;10421;49.142;9.232;2022-12-07T10:41:02;11.00;;;6.20;;
20525;SDS011;10421;49.142;9.232;2022-12-07T10:43:31;16.90;;;6.17;;
20525;SDS011;10421;49.142;9.232;2022-12-07T10:46:13;10.17;;;5.13;;
20525;SDS011;10421;49.142;9.232;2022-12-07T10:48:58;10.80;;;5.60;;
20525;SDS011;10421;49.142;9.232;2022-12-07T10:51:31;10.43;;;5.20;;
20525;SDS011;10421;49.142;9.232;2022-12-07T10:54:10;9.10;;;6.10;;
20525;SDS011;10421;49.142;9.232;2022-12-07T10:56:51;11.83;;;6.20;;
20525;SDS011;10421;49.142;9.232;2022-12-07T10:59:41;10.03;;;5.40;;
20525;SDS011;10421;49.142;9.232;2022-12-07T11:02:25;12.97;;;6.07;;
20525;SDS011;10421;49.142;9.232;2022-12-07T11:05:05;9.77;;;5.93;;
20525;SDS011;10421;49.142;9.232;2022-12-07T11:07:43;14.40;;;6.70;;
20525;SDS011;10421;49.142;9.232;2022-12-07T11:10:18;9.87;;;5.60;;
20525;SDS011;10421;49.142;9.232;2022-12-07T11:12:57;10.77;;;5.57;;
20525;SDS011;10421;49.142;9.232;2022-12-07T11:15:49;11.30;;;6.10;;
20525;SDS011;10421;49.142;9.232;2022-12-07T11:18:41;11.40;;;6.00;;
20525;SDS011;10421;49.142;9.232;2022-12-07T11:21:17;13.43;;;6.80;;
20525;SDS011;10421;49.142;9.232;2022-12-07T11:23:52;11.23;;;5.87;;
20525;SDS011;10421;49.142;9.232;2022-12-07T11:26:31;9.37;;;6.10;;
20525;SDS011;10421;49.142;9.232;2022-12-07T11:29:13;10.77;;;5.60;;
20525;SDS011;10421;49.142;9.232;2022-12-07T11:31:59;11.67;;;6.40;;
20525;SDS011;10421;49.142;9.232;2022-12-07T11:34:37;14.43;;;7.07;;
20525;SDS011;10421;49.142;9.232;2022-12-07T11:37:13;13.80;;;6.60;;
20525;SDS011;10421;49.142;9.232;2022-12-07T11:39:44;12.80;;;6.03;;
20525;SDS011;10421;49.142;9.232;2022-12-07T11:42:16;13.00;;;6.67;;
20525;SDS011;10421;49.142;9.232;2022-12-07T11:44:49;14.77;;;7.10;;
20525;SDS011;10421;49.142;9.232;2022-12-07T11:47:25;14.90;;;7.50;;
20525;SDS011;10421;49.142;9.232;2022-12-07T11:49:57;14.03;;;6.40;;
20525;SDS011;10421;49.142;9.232;2022-12-07T11:52:32;13.00;;;7.37;;
20525;SDS011;10421;49.142;9.232;2022-12-07T11:55:13;12.87;;;7.33;;
20525;SDS011;10421;49.142;9.232;2022-12-07T11:57:46;13.23;;;7.60;;
20525;SDS011;10421;49.142;9.232;2022-12-07T12:00:18;10.87;;;6.43;;
20525;SDS011;10421;49.142;9.232;2022-12-07T12:02:48;13.87;;;7.47;;
20525;SDS011;10421;49.142;9.232;2022-12-07T12:05:22;13.97;;;7.10;;
20525;SDS011;10421;49.142;9.232;2022-12-07T12:07:52;11.10;;;7.27;;
20525;SDS011;10421;49.142;9.232;2022-12-07T12:10:27;11.73;;;7.30;;
20525;SDS011;10421;49.142;9.232;2022-12-07T12:13:13;15.60;;;6.53;;
20525;SDS011;10421;49.142;9.232;2022-12-07T12:16:01;11.10;;;6.30;;
20525;SDS011;10421;49.142;9.232;2022-12-07T12:18:45;12.80;;;6.43;;
20525;SDS011;10421;49.142;9.232;2022-12-07T12:21:19;12.37;;;6.47;;
20525;SDS011;10421;49.142;9.232;2022-12-07T12:23:54;9.47;;;6.10;;
20525;SDS011;10421;49.142;9.232;2022-12-07T12:26:24;12.37;;;6.47;;
20525;SDS011;10421;49.142;9.232;2022-12-07T12:28:54;13.13;;;7.43;;
20525;SDS011;10421;49.142;9.232;2022-12-07T12:31:37;15.83;;;7.87;;
20525;SDS011;10421;49.142;9.232;2022-12-07T12:37:13;14.37;;;7.70;;
20525;SDS011;10421;49.142;9.232;2022-12-07T12:40:37;14.17;;;7.77;;
20525;SDS011;10421;49.142;9.232;2022-12-07T12:55:16;13.00;;;6.90;;
20525;SDS011;10421;49.142;9.232;2022-12-07T13:04:00;13.27;;;6.47;;
20525;SDS011;10421;49.142;9.232;2022-12-07T13:06:34;10.70;;;5.97;;
20525;SDS011;10421;49.142;9.232;2022-12-07T13:09:03;12.37;;;7.40;;
20525;SDS011;10421;49.142;9.232;2022-12-07T13:11:32;10.83;;;6.40;;
20525;SDS011;10421;49.142;9.232;2022-12-07T13:17:06;14.30;;;7.70;;
20525;SDS011;10421;49.142;9.232;2022-12-07T13:22:40;17.47;;;9.50;;
20525;SDS011;10421;49.142;9.232;2022-12-07T13:25:21;14.60;;;7.30;;
20525;SDS011;10421;49.142;9.232;2022-12-07T13:28:02;14.70;;;8.13;;
20525;SDS011;10421;49.142;9.232;2022-12-07T13:30:45;14.77;;;7.70;;
20525;SDS011;10421;49.142;9.232;2022-12-07T13:33:15;14.97;;;7.77;;
20525;SDS011;10421;49.142;9.232;2022-12-07T13:35:44;12.10;;;7.63;;
20525;SDS011;10421;49.142;9.232;2022-12-07T13:38:27;15.77;;;8.70;;
20525;SDS011;10421;49.142;9.232;2022-12-07T13:41:03;14.47;;;7.93;;
20525;SDS011;10421;49.142;9.232;2022-12-07T13:43:45;14.13;;;7.77;;
20525;SDS011;10421;49.142;9.232;2022-12-07T13:46:15;13.00;;;7.63;;
20525;SDS011;10421;49.142;9.232;2022-12-07T13:48:44;13.77;;;8.27;;
20525;SDS011;10421;49.142;9.232;2022-12-07T13:51:20;13.90;;;7.17;;
20525;SDS011;10421;49.142;9.232;2022-12-07T13:53:50;17.93;;;8.30;;
20525;SDS011;10421;49.142;9.232;2022-12-07T13:56:18;17.07;;;7.63;;
20525;SDS011;10421;49.142;9.232;2022-12-07T13:58:48;13.10;;;7.37;;
20525;SDS011;10421;49.142;9.232;2022-12-07T14:01:14;12.30;;;6.60;;
20525;SDS011;10421;49.142;9.232;2022-12-07T14:03:41;11.97;;;6.80;;
20525;SDS011;10421;49.142;9.232;2022-12-07T14:06:17;18.57;;;8.50;;
20525;SDS011;10421;49.142;9.232;2022-12-07T14:09:06;13.90;;;6.80;;
20525;SDS011;10421;49.142;9.232;2022-12-07T14:11:34;15.77;;;6.93;;
20525;SDS011;10421;49.142;9.232;2022-12-07T14:14:02;11.70;;;7.40;;
20525;SDS011;10421;49.142;9.232;2022-12-07T14:16:31;14.93;;;7.30;;
20525;SDS011;10421;49.142;9.232;2022-12-07T14:19:01;16.53;;;7.67;;
20525;SDS011;10421;49.142;9.232;2022-12-07T14:21:30;15.70;;;7.20;;
20525;SDS011;10421;49.142;9.232;2022-12-07T14:24:18;14.33;;;7.47;;
20525;SDS011;10421;49.142;9.232;2022-12-07T14:26:46;14.53;;;6.87;;
20525;SDS011;10421;49.142;9.232;2022-12-07T14:29:21;12.77;;;6.80;;
20525;SDS011;10421;49.142;9.232;2022-12-07T14:31:56;13.73;;;7.60;;
20525;SDS011;10421;49.142;9.232;2022-12-07T14:34:23;14.40;;;8.07;;
20525;SDS011;10421;49.142;9.232;2022-12-07T14:36:51;15.30;;;7.50;;
20525;SDS011;10421;49.142;9.232;2022-12-07T14:39:19;11.53;;;7.13;;
20525;SDS011;10421;49.142;9.232;2022-12-07T14:41:46;13.47;;;7.50;;
20525;SDS011;10421;49.142;9.232;2022-12-07T14:44:16;12.10;;;7.57;;
20525;SDS011;10421;49.142;9.232;2022-12-07T14:46:43;15.17;;;8.20;;
20525;SDS011;10421;49.142;9.232;2022-12-07T14:49:10;15.30;;;8.30;;
20525;SDS011;10421;49.142;9.232;2022-12-07T14:51:38;12.00;;;6.37;;
20525;SDS011;10421;49.142;9.232;2022-12-07T14:54:06;15.60;;;8.13;;
20525;SDS011;10421;49.142;9.232;2022-12-07T14:56:41;17.90;;;8.60;;
20525;SDS011;10421;49.142;9.232;2022-12-07T14:59:08;18.30;;;8.53;;
20525;SDS011;10421;49.142;9.232;2022-12-07T15:01:36;15.00;;;8.07;;
20525;SDS011;10421;49.142;9.232;2022-12-07T15:04:03;16.47;;;8.93;;
20525;SDS011;10421;49.142;9.232;2022-12-07T15:06:30;14.03;;;7.67;;
20525;SDS011;10421;49.142;9.232;2022-12-07T15:08:57;14.87;;;6.90;;
20525;SDS011;10421;49.142;9.232;2022-12-07T15:11:24;13.13;;;7.40;;
20525;SDS011;10421;49.142;9.232;2022-12-07T15:13:52;16.30;;;8.00;;
20525;SDS011;10421;49.142;9.232;2022-12-07T15:16:34;12.50;;;7.97;;
20525;SDS011;10421;49.142;9.232;2022-12-07T15:19:02;15.10;;;7.30;;
20525;SDS011;10421;49.142;9.232;2022-12-07T15:21:29;16.50;;;8.73;;